createdAt,value
2023-03-08T00:02:08.334Z,94.43
2023-03-08T00:04:39.555Z,95.85
2023-03-08T00:07:09.523Z,92.38
2023-03-08T00:09:40.861Z,94.85
2023-03-08T00:12:12.822Z,91.28
2023-03-08T00:14:42.948Z,92.60
2023-03-08T00:17:12.886Z,99.53
2023-03-08T00:19:42.795Z,102.50
2023-03-08T00:22:13.798Z,103.35
2023-03-08T00:27:13.390Z,114.05
2023-03-08T00:29:43.378Z,114.18
2023-03-08T00:32:13.215Z,119.18
2023-03-08T00:34:48.455Z,121.13
2023-03-08T00:37:18.466Z,110.38
2023-03-08T00:39:56.607Z,122.97
2023-03-08T00:42:27.235Z,124.78
2023-03-08T00:44:57.623Z,120.13
2023-03-08T00:47:27.532Z,130.60
2023-03-08T00:49:57.832Z,123.80
2023-03-08T00:52:27.962Z,133.27
2023-03-08T00:55:15.913Z,136.18
2023-03-08T00:57:45.927Z,124.07
2023-03-08T01:00:16.483Z,120.10
2023-03-08T01:02:46.635Z,130.25
2023-03-08T01:05:16.714Z,124.65
2023-03-08T01:07:46.979Z,117.13
2023-03-08T01:10:17.409Z,125.07
2023-03-08T01:12:47.513Z,120.75
2023-03-08T01:15:17.667Z,119.22
2023-03-08T01:17:47.486Z,121.60
2023-03-08T01:20:17.382Z,127.32
2023-03-08T01:22:47.180Z,129.77
2023-03-08T01:25:17.037Z,121.88
2023-03-08T01:27:46.895Z,127.30
2023-03-08T01:30:17.264Z,122.05
2023-03-08T01:32:47.290Z,122.10
2023-03-08T01:35:17.245Z,126.05
2023-03-08T01:37:55.648Z,121.43
2023-03-08T01:40:25.760Z,122.70
2023-03-08T01:42:55.605Z,127.78
2023-03-08T01:46:02.338Z,129.85
2023-03-08T01:49:22.373Z,124.60
2023-03-08T01:55:13.972Z,119.72
2023-03-08T01:57:51.506Z,120.45
2023-03-08T02:00:28.973Z,110.80
2023-03-08T02:03:04.410Z,110.25
2023-03-08T02:05:38.082Z,119.57
2023-03-08T02:08:16.764Z,124.88
2023-03-08T02:13:18.858Z,112.07
2023-03-08T02:16:10.620Z,114.25
2023-03-08T02:19:19.606Z,109.05
2023-03-08T02:22:15.350Z,112.45
2023-03-08T02:24:45.769Z,102.18
2023-03-08T02:27:28.387Z,101.13
2023-03-08T02:29:58.459Z,103.20
2023-03-08T02:32:28.642Z,98.75
2023-03-08T02:34:58.735Z,100.03
2023-03-08T02:37:28.621Z,100.75
2023-03-08T02:39:58.511Z,104.13
2023-03-08T02:42:28.520Z,96.63
2023-03-08T02:44:58.448Z,97.20
2023-03-08T02:47:28.390Z,95.85
2023-03-08T02:50:16.715Z,92.40
2023-03-08T02:52:47.668Z,93.07
2023-03-08T02:55:17.900Z,94.72
2023-03-08T02:57:48.329Z,89.30
2023-03-08T03:00:21.125Z,90.07
2023-03-08T03:02:51.413Z,95.50
2023-03-08T03:05:22.862Z,92.18
2023-03-08T03:08:11.396Z,92.55
2023-03-08T03:13:09.362Z,95.18
2023-03-08T03:15:42.671Z,92.70
2023-03-08T03:18:12.716Z,89.10
2023-03-08T03:20:42.579Z,90.45
2023-03-08T03:23:12.437Z,92.80
2023-03-08T03:25:51.795Z,94.65
2023-03-08T03:28:23.638Z,101.97
2023-03-08T03:31:14.955Z,90.97
2023-03-08T03:34:03.390Z,94.22
2023-03-08T03:36:34.284Z,91.10
2023-03-08T03:39:05.066Z,91.23
2023-03-08T03:41:37.804Z,88.63
2023-03-08T03:44:12.771Z,92.25
2023-03-08T03:46:44.664Z,96.18
2023-03-08T03:49:18.827Z,88.60
2023-03-08T03:57:23.222Z,89.05
2023-03-08T04:00:12.409Z,89.95
2023-03-08T04:02:49.025Z,85.68
2023-03-08T04:05:21.940Z,88.30
2023-03-08T04:07:55.179Z,86.47
2023-03-08T04:13:15.019Z,84.28
2023-03-08T04:15:45.834Z,86.38
2023-03-08T04:18:16.414Z,84.93
2023-03-08T04:20:49.229Z,84.85
2023-03-08T04:23:37.732Z,81.80
2023-03-08T04:26:10.708Z,81.55
2023-03-08T04:28:40.800Z,83.20
2023-03-08T04:31:23.338Z,81.28
2023-03-08T04:34:11.645Z,81.85
2023-03-08T04:36:42.476Z,82.53
2023-03-08T04:39:12.598Z,81.88
2023-03-08T04:41:42.625Z,77.13
2023-03-08T04:44:23.546Z,80.32
2023-03-08T04:46:56.264Z,81.55
2023-03-08T04:49:44.356Z,75.95
2023-03-08T04:52:15.469Z,75.72
2023-03-08T05:00:16.450Z,79.47
2023-03-08T05:05:20.478Z,76.80
2023-03-08T05:07:51.031Z,74.63
2023-03-08T05:10:21.304Z,72.00
2023-03-08T05:12:53.028Z,76.03
2023-03-08T05:15:25.708Z,75.43
2023-03-08T05:17:55.899Z,73.72
2023-03-08T05:20:25.822Z,71.00
2023-03-08T05:22:59.008Z,73.68
2023-03-08T05:25:45.925Z,72.57
2023-03-08T05:28:18.033Z,74.00
2023-03-08T05:30:49.704Z,71.43
2023-03-08T05:33:21.189Z,70.95
2023-03-08T05:38:42.376Z,67.60
2023-03-08T05:41:18.967Z,68.93
2023-03-08T05:43:52.863Z,67.20
2023-03-08T05:46:41.554Z,66.30
2023-03-08T05:49:14.329Z,63.00
2023-03-08T05:51:45.093Z,65.40
2023-03-08T05:54:15.124Z,66.47
2023-03-08T05:56:47.758Z,65.57
2023-03-08T05:59:29.020Z,67.20
2023-03-08T06:02:03.777Z,65.65
2023-03-08T06:04:47.531Z,63.45
2023-03-08T06:07:20.373Z,64.50
2023-03-08T06:09:56.977Z,66.43
2023-03-08T06:12:28.247Z,66.10
2023-03-08T06:15:02.076Z,64.68
2023-03-08T06:17:36.826Z,62.47
2023-03-08T06:23:30.439Z,64.30
2023-03-08T06:26:18.706Z,63.65
2023-03-08T06:28:49.251Z,65.00
2023-03-08T06:31:20.837Z,62.58
2023-03-08T06:37:13.682Z,60.97
2023-03-08T06:40:03.108Z,61.97
2023-03-08T06:42:51.485Z,62.33
2023-03-08T06:45:21.509Z,62.42
2023-03-08T06:47:51.384Z,62.17
2023-03-08T06:50:21.729Z,62.08
2023-03-08T06:52:53.169Z,63.30
2023-03-08T06:55:33.499Z,62.78
2023-03-08T06:58:21.976Z,62.42
2023-03-08T07:01:11.940Z,60.42
2023-03-08T07:03:42.264Z,61.75
2023-03-08T07:06:12.823Z,60.65
2023-03-08T07:08:43.788Z,61.00
2023-03-08T07:11:14.035Z,61.30
2023-03-08T07:13:44.033Z,60.67
2023-03-08T07:16:15.944Z,61.38
2023-03-08T07:18:46.156Z,60.88
2023-03-08T07:21:16.036Z,63.05
2023-03-08T07:23:45.902Z,61.03
2023-03-08T07:26:15.732Z,60.35
2023-03-08T07:28:45.576Z,62.35
2023-03-08T07:31:15.825Z,60.58
2023-03-08T07:33:46.026Z,63.20
2023-03-08T07:36:16.310Z,61.47
2023-03-08T07:38:47.166Z,60.23
2023-03-08T07:41:17.212Z,62.80
2023-03-08T07:43:47.275Z,62.50
2023-03-08T07:46:20.522Z,61.15
2023-03-08T07:48:50.571Z,62.20
2023-03-08T07:51:20.516Z,60.50
2023-03-08T07:53:50.598Z,61.60
2023-03-08T07:56:20.941Z,59.90
2023-03-08T07:58:51.012Z,61.67
2023-03-08T08:01:21.167Z,60.67
2023-03-08T08:03:51.092Z,61.25
2023-03-08T08:06:21.108Z,58.60
2023-03-08T08:08:50.952Z,59.90
2023-03-08T08:11:24.752Z,60.72
2023-03-08T08:13:54.965Z,60.05
2023-03-08T08:16:25.190Z,60.00
2023-03-08T08:18:56.603Z,61.70
2023-03-08T08:24:30.846Z,60.85
2023-03-08T08:27:19.360Z,59.63
2023-03-08T08:29:51.682Z,58.75
2023-03-08T08:32:21.641Z,59.05
2023-03-08T08:34:51.479Z,58.45
2023-03-08T08:37:22.604Z,62.47
2023-03-08T08:40:13.404Z,59.83
2023-03-08T08:42:43.585Z,59.42
2023-03-08T08:45:13.861Z,59.75
2023-03-08T08:47:43.909Z,59.90
2023-03-08T08:50:14.306Z,60.95
2023-03-08T08:52:44.411Z,60.03
2023-03-08T08:55:14.884Z,58.15
2023-03-08T08:57:44.879Z,59.45
2023-03-08T09:00:15.418Z,61.35
2023-03-08T09:02:45.452Z,58.65
2023-03-08T09:05:15.630Z,61.33
2023-03-08T09:08:04.310Z,59.28
2023-03-08T09:13:23.098Z,58.80
2023-03-08T09:15:53.000Z,59.97
2023-03-08T09:18:22.840Z,60.33
2023-03-08T09:20:52.784Z,59.42
2023-03-08T09:23:23.462Z,58.47
2023-03-08T09:26:11.727Z,59.58
2023-03-08T09:28:41.891Z,59.45
2023-03-08T09:31:17.095Z,61.15
2023-03-08T09:33:50.535Z,61.10
2023-03-08T09:36:20.744Z,59.45
2023-03-08T09:38:52.440Z,61.10
2023-03-08T09:41:25.336Z,60.50
2023-03-08T09:44:13.921Z,59.95
2023-03-08T09:46:51.074Z,59.85
2023-03-08T09:49:40.933Z,61.25
2023-03-08T09:52:35.580Z,60.40
2023-03-08T09:55:08.244Z,59.90
2023-03-08T09:57:44.565Z,59.97
2023-03-08T10:00:40.508Z,59.35
2023-03-08T10:03:40.848Z,59.90
2023-03-08T10:06:37.071Z,59.58
2023-03-08T10:09:45.155Z,58.42
2023-03-08T10:12:54.911Z,60.42
2023-03-08T10:15:27.417Z,61.55
2023-03-08T10:18:03.841Z,58.83
2023-03-08T10:20:52.350Z,59.78
2023-03-08T10:23:24.162Z,62.55
2023-03-08T10:25:54.265Z,61.00
2023-03-08T10:28:26.690Z,59.83
2023-03-08T10:31:02.367Z,60.63
2023-03-08T10:33:38.217Z,59.10
2023-03-08T10:36:19.772Z,61.35
2023-03-08T10:41:48.112Z,60.22
2023-03-08T10:44:42.129Z,60.25
2023-03-08T10:47:36.632Z,59.72
2023-03-08T10:50:16.115Z,57.83
2023-03-08T10:52:48.299Z,60.78
2023-03-08T10:55:25.356Z,59.10
2023-03-08T10:58:01.023Z,58.15
2023-03-08T11:00:38.212Z,60.72
2023-03-08T11:03:23.586Z,59.08
2023-03-08T11:05:55.934Z,58.42
2023-03-08T11:08:32.724Z,62.30
2023-03-08T11:11:08.732Z,56.75
2023-03-08T11:13:44.180Z,60.33
2023-03-08T11:16:37.087Z,61.50
2023-03-08T11:19:25.742Z,60.30
2023-03-08T11:22:14.931Z,62.28
2023-03-08T11:25:02.908Z,60.17
2023-03-08T11:28:10.490Z,59.25
2023-03-08T11:30:59.532Z,60.08
2023-03-08T11:34:09.624Z,60.20
2023-03-08T11:37:05.336Z,59.60
2023-03-08T11:39:43.151Z,58.42
2023-03-08T11:43:04.255Z,57.10
2023-03-08T11:45:39.564Z,60.73
2023-03-08T11:48:27.736Z,58.70
2023-03-08T11:51:27.343Z,62.42
2023-03-08T11:54:06.095Z,61.90
2023-03-08T11:56:36.668Z,61.22
2023-03-08T11:59:16.739Z,63.17
2023-03-08T12:02:13.673Z,61.10
2023-03-08T12:05:17.310Z,62.03
2023-03-08T12:07:55.019Z,62.20
2023-03-08T12:10:34.209Z,61.28
2023-03-08T12:13:44.420Z,60.30
2023-03-08T12:16:34.773Z,62.58
2023-03-08T12:19:38.266Z,62.50
2023-03-08T12:22:48.225Z,64.70
2023-03-08T12:25:35.581Z,65.05
2023-03-08T12:28:31.198Z,63.88
2023-03-08T12:31:28.917Z,66.63
2023-03-08T12:34:01.448Z,64.25
2023-03-08T12:36:46.284Z,64.97
2023-03-08T12:39:35.467Z,64.32
2023-03-08T12:42:14.085Z,64.80
2023-03-08T12:44:44.842Z,64.50
2023-03-08T12:47:15.485Z,64.70
2023-03-08T15:36:45.882Z,71.63
2023-03-08T15:39:16.391Z,71.10
2023-03-08T15:41:46.729Z,69.47
2023-03-08T15:44:16.982Z,71.73
2023-03-08T15:46:51.511Z,71.70
2023-03-08T15:49:23.167Z,70.78
2023-03-08T15:51:53.866Z,68.97
2023-03-08T15:54:24.002Z,67.93
2023-03-08T15:56:54.250Z,69.65
2023-03-08T15:59:26.150Z,68.07
2023-03-08T16:01:56.453Z,76.57
2023-03-08T16:04:26.738Z,74.35
2023-03-08T16:06:57.032Z,72.65
2023-03-08T16:09:27.237Z,72.40
2023-03-08T16:11:57.462Z,75.70
2023-03-08T16:14:27.790Z,70.85
2023-03-08T16:16:57.857Z,72.30
2023-03-08T16:19:27.803Z,74.05
2023-03-08T16:21:57.726Z,74.82
2023-03-08T16:24:27.918Z,72.32
2023-03-08T16:26:58.339Z,70.03
2023-03-08T16:29:28.884Z,74.88
2023-03-08T16:32:00.781Z,72.20
2023-03-08T16:34:32.140Z,73.63
2023-03-08T16:39:33.737Z,71.63
2023-03-08T16:42:03.767Z,72.63
2023-03-08T16:44:33.730Z,74.15
2023-03-08T16:47:03.649Z,72.35
2023-03-08T16:49:33.671Z,74.60
2023-03-08T16:52:03.966Z,70.80
2023-03-08T16:54:34.203Z,71.10
2023-03-08T16:57:18.208Z,69.18
2023-03-08T16:59:49.212Z,76.95
2023-03-08T17:02:21.940Z,74.40
2023-03-08T17:04:52.528Z,69.22
2023-03-08T17:07:22.877Z,69.50
2023-03-08T17:12:40.529Z,68.68
2023-03-08T17:15:15.980Z,69.00
2023-03-08T17:17:49.366Z,69.40
2023-03-08T17:20:24.468Z,70.50
2023-03-08T17:22:54.603Z,71.53
2023-03-08T17:25:27.553Z,67.68
2023-03-08T17:27:57.967Z,68.10
2023-03-08T17:30:28.226Z,68.65
2023-03-08T17:32:58.945Z,69.47
2023-03-08T17:35:34.057Z,68.28
2023-03-08T17:38:04.404Z,70.80
2023-03-08T17:40:34.541Z,68.03
2023-03-08T17:43:07.442Z,69.32
2023-03-08T17:45:37.741Z,65.85
2023-03-08T17:48:08.099Z,67.55
2023-03-08T17:50:40.858Z,68.18
2023-03-08T17:53:14.866Z,69.65
2023-03-08T17:55:44.959Z,68.05
2023-03-08T17:58:15.208Z,68.78
2023-03-08T18:00:45.390Z,68.03
2023-03-08T18:03:15.632Z,70.22
2023-03-08T18:06:03.905Z,67.78
2023-03-08T18:08:35.548Z,68.95
2023-03-08T18:11:06.137Z,69.65
2023-03-08T18:13:36.391Z,67.50
2023-03-08T18:16:07.911Z,67.63
2023-03-08T18:18:38.360Z,67.18
2023-03-08T18:21:13.914Z,66.93
2023-03-08T18:23:45.492Z,66.05
2023-03-08T18:28:46.085Z,66.25
2023-03-08T18:31:25.392Z,66.22
2023-03-08T18:33:56.409Z,62.65
2023-03-08T18:36:27.749Z,66.10
2023-03-08T18:38:58.033Z,67.28
2023-03-08T18:41:30.437Z,65.93
2023-03-08T18:44:02.250Z,68.55
2023-03-08T18:46:34.660Z,65.82
2023-03-08T18:49:09.043Z,68.90
2023-03-08T18:51:42.680Z,69.32
2023-03-08T18:54:19.301Z,66.38
2023-03-08T18:56:52.231Z,67.70
2023-03-08T18:59:23.281Z,70.13
2023-03-08T19:01:53.827Z,65.28
2023-03-08T19:05:01.803Z,68.50
2023-03-08T19:07:15.496Z,66.80
2023-03-08T19:09:47.213Z,66.53
2023-03-08T19:12:18.128Z,62.72
2023-03-08T19:14:51.033Z,67.35
2023-03-08T19:17:21.092Z,65.18
2023-03-08T19:19:51.088Z,66.10
2023-03-08T19:22:21.468Z,63.13
2023-03-08T19:24:51.611Z,65.50
2023-03-08T19:27:21.574Z,62.88
2023-03-08T19:29:51.462Z,63.10
2023-03-08T19:32:22.097Z,64.35
2023-03-08T19:34:52.432Z,61.72
2023-03-08T19:37:22.510Z,62.88
2023-03-08T19:39:52.472Z,66.32
2023-03-08T19:42:22.442Z,63.42
2023-03-08T19:44:53.355Z,62.20
2023-03-08T19:47:23.580Z,62.15
2023-03-08T19:49:53.726Z,61.53
2023-03-08T19:52:23.615Z,61.13
2023-03-08T19:54:53.587Z,62.08
2023-03-08T19:57:23.684Z,63.47
2023-03-08T19:59:53.555Z,62.47
2023-03-08T20:02:23.573Z,63.10
2023-03-08T20:04:53.505Z,62.58
2023-03-08T20:07:23.788Z,60.13
2023-03-08T20:10:02.286Z,60.88
2023-03-08T20:12:40.502Z,63.17
2023-03-08T20:15:10.628Z,61.47
2023-03-08T20:17:40.858Z,61.55
2023-03-08T20:20:11.945Z,63.08
2023-03-08T20:22:42.022Z,60.53
2023-03-08T20:25:14.442Z,60.53
2023-03-08T20:27:47.885Z,59.95
2023-03-08T20:30:18.146Z,61.67
2023-03-08T20:32:48.203Z,60.50
2023-03-08T20:35:20.793Z,61.63
2023-03-08T20:37:52.192Z,67.75
2023-03-08T20:40:23.061Z,60.05
2023-03-08T20:42:53.394Z,62.28
2023-03-08T20:45:26.050Z,60.28
2023-03-08T20:47:59.473Z,59.42
2023-03-08T20:50:30.221Z,61.92
2023-03-08T20:53:00.422Z,64.93
2023-03-08T20:55:30.383Z,60.08
2023-03-08T20:58:00.333Z,59.13
2023-03-08T21:00:30.356Z,57.75
2023-03-08T21:03:00.724Z,57.55
2023-03-08T21:05:30.930Z,58.73
2023-03-08T21:08:00.804Z,58.72
2023-03-08T21:10:30.991Z,57.72
2023-03-08T21:13:02.242Z,58.55
2023-03-08T21:18:01.894Z,58.45
2023-03-08T21:20:31.810Z,55.17
2023-03-08T21:23:01.872Z,59.22
2023-03-08T21:25:31.905Z,57.45
2023-03-08T21:28:01.789Z,56.45
2023-03-08T21:30:33.049Z,57.63
2023-03-08T21:33:03.061Z,56.35
2023-03-08T21:35:33.031Z,58.97
2023-03-08T21:38:03.203Z,53.53
2023-03-08T21:40:42.320Z,55.40
2023-03-08T21:43:12.963Z,58.67
2023-03-08T21:45:44.631Z,55.47
2023-03-08T21:48:15.849Z,55.28
2023-03-08T21:50:45.953Z,54.60
2023-03-08T21:53:15.881Z,56.28
2023-03-08T21:55:47.685Z,54.92
2023-03-08T21:58:17.743Z,56.58
2023-03-08T22:00:55.970Z,56.83
2023-03-08T22:06:17.466Z,56.45
2023-03-08T22:08:47.853Z,55.92
2023-03-08T22:11:18.806Z,57.07
2023-03-08T22:13:57.467Z,53.40
2023-03-08T22:16:28.675Z,58.72
2023-03-08T22:21:33.594Z,54.80
2023-03-08T22:24:05.194Z,61.75
2023-03-08T22:26:35.278Z,59.65
2023-03-08T22:29:05.157Z,61.55
2023-03-08T22:31:35.456Z,58.70
2023-03-08T22:34:06.397Z,59.97
2023-03-08T22:36:37.010Z,57.90
2023-03-08T22:39:07.228Z,57.53
2023-03-08T22:41:37.390Z,56.70
2023-03-08T22:44:09.036Z,58.65
2023-03-08T22:46:39.219Z,57.70
2023-03-08T22:49:16.003Z,59.05
2023-03-08T22:51:46.957Z,54.25
2023-03-08T22:54:22.012Z,55.40
2023-03-08T22:56:52.208Z,58.47
2023-03-08T23:15:19.478Z,71.40
2023-03-08T23:17:49.637Z,67.07
2023-03-08T23:20:22.204Z,63.17
2023-03-08T23:22:53.234Z,63.00
2023-03-08T23:25:23.344Z,60.83
2023-03-08T23:27:53.386Z,61.17
2023-03-08T23:30:23.594Z,58.83
2023-03-08T23:32:53.743Z,57.53
2023-03-08T23:35:23.793Z,57.20
2023-03-08T23:37:53.820Z,59.55
2023-03-08T23:40:23.757Z,58.33
2023-03-08T23:42:53.724Z,62.03
2023-03-08T23:45:23.767Z,65.60
2023-03-08T23:47:53.756Z,61.63
2023-03-08T23:50:23.682Z,62.17
2023-03-08T23:52:53.586Z,61.88
2023-03-08T23:55:23.507Z,62.70
2023-03-08T23:57:53.401Z,66.82
